Time;durP1;ratioP1;P1;durP2;ratioP2;P2;SDS_P1;SDS_P2;PMS_P1;PMS_P2;Temp;Humidity;BMP_temperature;BMP_pressure;BME280_temperature;BME280_humidity;BME280_pressure;Samples;Min_cycle;Max_cycle;Signal;HPM_P1;HPM_P2
2021/04/29 04:44:15;;;;;;;16.85;11.22;;;;;;;7.13;74.01;100493.88;1723735;81;21651;-36
2021/04/29 04:46:42;;;;;;;16.37;10.72;;;;;;;7.23;73.33;100500.12;1727192;82;21204;-36
2021/04/29 04:49:10;;;;;;;13.00;9.63;;;;;;;7.31;73.06;100496.81;1722434;82;21191;-42
2021/04/29 04:51:38;;;;;;;16.40;11.03;;;;;;;7.40;72.27;100498.24;1713115;83;21456;-37
2021/04/29 04:54:06;;;;;;;20.10;10.32;;;;;;;7.50;71.86;100495.80;1720551;82;21163;-42
2021/04/29 04:56:36;;;;;;;15.30;10.05;;;;;;;7.59;71.24;100501.13;1719293;83;21124;-42
2021/04/29 04:59:04;;;;;;;15.53;9.60;;;;;;;7.69;70.70;100500.00;1719278;82;21176;-36
2021/04/29 05:01:32;;;;;;;13.05;8.58;;;;;;;7.79;69.94;100498.41;1673878;83;21187;-36
2021/04/29 05:03:59;;;;;;;15.08;8.60;;;;;;;7.87;69.25;100507.20;1716286;82;21665;-43
2021/04/29 05:06:27;;;;;;;13.22;8.30;;;;;;;7.95;68.45;100508.63;1717413;81;21151;-41
2021/04/29 05:08:58;;;;;;;12.80;8.23;;;;;;;8.01;67.71;100511.32;1718262;81;21132;-36
2021/04/29 05:11:26;;;;;;;19.12;7.90;;;;;;;8.07;67.24;100506.62;1689843;82;21186;-37
2021/04/29 05:13:55;;;;;;;17.17;8.45;;;;;;;8.14;67.12;100510.63;1699284;82;21759;-37
2021/04/29 05:16:23;;;;;;;10.23;7.65;;;;;;;8.20;66.85;100508.09;1725559;81;21168;-37
2021/04/29 05:18:51;;;;;;;10.63;7.47;;;;;;;8.26;66.15;100509.91;1719813;82;21423;-38
2021/04/29 05:21:19;;;;;;;11.22;8.95;;;;;;;8.33;65.89;100512.16;1721135;82;21518;-35
2021/04/29 05:23:47;;;;;;;12.73;7.75;;;;;;;8.38;65.47;100516.61;1723924;81;21594;-42
2021/04/29 05:26:15;;;;;;;11.80;7.03;;;;;;;8.45;64.84;100513.64;1722946;81;21167;-36
2021/04/29 05:28:43;;;;;;;11.22;7.10;;;;;;;8.52;64.44;100514.15;1718035;81;21647;-42
2021/04/29 05:31:13;;;;;;;11.78;6.78;;;;;;;8.58;64.05;100509.04;1677067;83;21210;-37
2021/04/29 05:33:41;;;;;;;10.40;7.03;;;;;;;8.66;63.93;100515.63;1719337;81;21218;-37
2021/04/29 05:36:12;;;;;;;14.55;7.42;;;;;;;8.73;63.76;100516.14;1681516;83;21989;-37
2021/04/29 05:38:40;;;;;;;9.00;6.80;;;;;;;8.79;64.05;100517.51;1670495;83;21211;-46
2021/04/29 05:41:27;;;;;;;16.90;6.58;;;;;;;8.87;63.75;100517.19;1716991;81;21495;-38
2021/04/29 05:43:56;;;;;;;27.45;6.83;;;;;;;8.96;62.95;100517.25;1718304;81;21686;-37
2021/04/29 05:46:25;;;;;;;13.95;6.15;;;;;;;9.03;62.69;100519.49;1712638;82;21328;-37
2021/04/29 05:49:03;;;;;;;10.63;6.62;;;;;;;9.08;62.50;100522.16;1716138;82;21682;-44
2021/04/29 05:51:42;;;;;;;8.63;6.15;;;;;;;9.12;62.18;100524.81;1735257;81;21183;-37
2021/04/29 05:54:11;;;;;;;8.35;6.30;;;;;;;9.15;61.51;100520.91;1731517;81;21686;-43
2021/04/29 05:56:40;;;;;;;11.95;7.33;;;;;;;9.20;61.73;100520.52;1717307;81;21203;-36
2021/04/29 05:59:07;;;;;;;9.78;7.35;;;;;;;9.28;61.68;100524.53;1718339;83;21849;-42
2021/04/29 06:01:37;;;;;;;11.65;6.97;;;;;;;9.36;61.36;100524.59;1689235;83;21183;-43
2021/04/29 06:04:06;;;;;;;10.88;6.85;;;;;;;9.42;60.94;100518.98;1723392;81;21135;-37
2021/04/29 06:06:35;;;;;;;8.93;5.92;;;;;;;9.49;60.18;100514.24;1726833;81;21172;-37
2021/04/29 06:09:04;;;;;;;9.25;5.85;;;;;;;9.56;59.82;100513.86;1683375;83;21142;-36
2021/04/29 06:11:33;;;;;;;9.25;6.47;;;;;;;9.60;59.75;100513.89;1728747;81;21720;-37
2021/04/29 06:14:03;;;;;;;11.25;6.47;;;;;;;9.67;59.99;100512.20;1681460;83;21659;-43
2021/04/29 06:16:31;;;;;;;11.85;6.97;;;;;;;9.76;59.99;100517.50;1729340;81;21166;-42
2021/04/29 06:18:59;;;;;;;11.05;6.30;;;;;;;9.83;59.93;100519.28;1726350;81;21651;-36
2021/04/29 06:21:26;;;;;;;12.28;6.90;;;;;;;9.90;59.75;100517.58;1720115;82;21165;-37
2021/04/29 06:23:54;;;;;;;10.50;6.95;;;;;;;9.95;58.63;100518.48;1719239;82;21161;-37
2021/04/29 06:26:23;;;;;;;15.70;7.58;;;;;;;9.96;58.87;100520.66;1722292;81;21202;-37
2021/04/29 06:28:52;;;;;;;10.48;6.85;;;;;;;9.97;58.27;100520.70;1725010;81;21814;-37
2021/04/29 06:31:21;;;;;;;11.18;6.67;;;;;;;10.01;58.40;100526.36;1705547;82;21588;-36
2021/04/29 06:33:59;;;;;;;11.15;6.17;;;;;;;10.06;58.94;100532.93;1704937;81;21528;-42
2021/04/29 06:36:34;;;;;;;8.78;5.40;;;;;;;10.09;59.44;100528.61;1665387;83;21551;-43
2021/04/29 06:39:02;;;;;;;7.80;5.65;;;;;;;10.13;58.84;100528.17;1684483;83;21545;-43
2021/04/29 06:41:31;;;;;;;9.38;5.53;;;;;;;10.15;58.27;100531.69;1725505;81;21155;-43
2021/04/29 06:43:59;;;;;;;13.48;6.35;;;;;;;10.19;58.44;100531.25;1723869;81;21155;-38
2021/04/29 06:46:27;;;;;;;13.78;6.05;;;;;;;10.23;58.92;100532.63;1717742;81;21773;-43
2021/04/29 06:48:56;;;;;;;11.12;6.35;;;;;;;10.28;59.12;100528.30;1725946;81;21706;-36
2021/04/29 06:51:24;;;;;;;19.92;6.28;;;;;;;10.30;58.86;100531.78;1671278;83;21691;-42
2021/04/29 06:53:54;;;;;;;10.82;6.53;;;;;;;10.38;58.59;100535.77;1668676;83;21191;-37
2021/04/29 06:56:22;;;;;;;13.48;6.28;;;;;;;10.42;58.14;100536.20;1675262;83;21217;-38
2021/04/29 06:58:51;;;;;;;9.55;6.85;;;;;;;10.45;58.43;100534.91;1685675;83;21328;-37
2021/04/29 07:01:21;;;;;;;8.33;5.75;;;;;;;10.50;57.84;100535.81;1681499;83;21519;-36
2021/04/29 07:03:49;;;;;;;9.43;6.45;;;;;;;10.57;57.82;100534.96;1670018;84;21191;-43
2021/04/29 07:06:24;;;;;;;10.03;5.95;;;;;;;10.64;58.10;100531.92;1678014;83;21209;-43
2021/04/29 07:08:53;;;;;;;12.60;6.50;;;;;;;10.73;57.71;100535.89;1675045;83;21176;-42
2021/04/29 07:11:23;;;;;;;9.40;6.72;;;;;;;10.84;57.96;100539.42;1672137;83;21236;-36
2021/04/29 07:13:54;;;;;;;10.95;6.72;;;;;;;10.96;57.08;100531.13;1672661;83;21183;-37
2021/04/29 07:16:23;;;;;;;12.10;6.80;;;;;;;11.07;57.26;100530.72;1675297;83;21206;-42
2021/04/29 07:18:53;;;;;;;11.63;7.08;;;;;;;11.17;57.29;100530.73;1647311;85;21754;-37
2021/04/29 07:21:20;;;;;;;12.03;6.83;;;;;;;11.31;57.02;100532.52;1646009;85;21730;-42
2021/04/29 07:23:49;;;;;;;13.38;6.50;;;;;;;11.46;57.31;100528.14;1668345;84;21232;-42
2021/04/29 07:26:17;;;;;;;10.28;6.40;;;;;;;11.64;56.40;100529.88;1668019;84;21252;-42
2021/04/29 07:28:45;;;;;;;12.65;6.65;;;;;;;11.80;56.12;100527.25;1671822;83;21195;-43
2021/04/29 07:31:13;;;;;;;12.15;6.08;;;;;;;11.94;55.11;100532.05;1674151;83;21673;-42
2021/04/29 07:33:41;;;;;;;8.13;5.85;;;;;;;12.07;55.55;100532.48;1712651;82;21212;-44
2021/04/29 07:36:16;;;;;;;9.90;7.03;;;;;;;12.20;54.84;100518.89;1716442;81;21212;-38
2021/04/29 07:38:49;;;;;;;10.00;6.25;;;;;;;12.27;53.67;100519.30;1664479;83;21650;-36
2021/04/29 07:41:25;;;;;;;13.20;6.35;;;;;;;12.34;54.27;100528.02;1687676;82;21634;-36
2021/04/29 07:43:54;;;;;;;14.73;6.60;;;;;;;12.44;53.75;100525.36;1673593;83;21314;-44
2021/04/29 07:46:23;;;;;;;13.18;6.85;;;;;;;12.61;54.03;100513.92;1656773;85;21182;-43
2021/04/29 07:48:52;;;;;;;10.78;6.53;;;;;;;12.78;52.80;100511.64;1657318;85;21211;-37
2021/04/29 07:51:20;;;;;;;12.95;7.78;;;;;;;12.95;52.31;100517.23;1684219;83;21802;-37
2021/04/29 07:53:48;;;;;;;18.45;6.33;;;;;;;13.09;51.91;100519.32;1668701;84;21140;-43
2021/04/29 07:56:16;;;;;;;16.50;6.33;;;;;;;13.19;51.52;100514.44;1672226;84;21320;-43
2021/04/29 07:58:44;;;;;;;13.43;6.78;;;;;;;13.25;51.21;100517.05;1672230;83;21178;-43
2021/04/29 08:01:13;;;;;;;8.88;6.67;;;;;;;13.29;51.39;100509.59;1673753;83;21115;-43
2021/04/29 08:03:41;;;;;;;11.15;6.83;;;;;;;13.43;50.78;100509.91;1675923;84;21682;-37
2021/04/29 08:06:09;;;;;;;14.03;7.00;;;;;;;13.54;50.68;100516.83;1672503;84;21179;-38
2021/04/29 08:08:38;;;;;;;13.05;7.45;;;;;;;13.67;51.06;100504.87;1669452;84;21196;-44
2021/04/29 08:11:06;;;;;;;8.03;6.25;;;;;;;13.77;49.63;100505.23;1670602;84;21229;-37
2021/04/29 08:13:37;;;;;;;12.45;6.58;;;;;;;13.80;49.47;100508.71;1666277;84;21175;-42
2021/04/29 08:16:06;;;;;;;10.95;6.90;;;;;;;13.76;48.70;100503.05;1669839;84;21747;-36
2021/04/29 08:18:34;;;;;;;11.63;6.58;;;;;;;13.77;48.40;100508.73;1673448;84;21723;-43
2021/04/29 08:21:04;;;;;;;12.20;7.90;;;;;;;13.83;48.02;100501.22;1673613;84;21840;-36
2021/04/29 08:23:32;;;;;;;10.28;7.50;;;;;;;13.91;48.39;100501.13;1637247;85;21170;-43
2021/04/29 08:26:01;;;;;;;10.68;6.95;;;;;;;13.97;48.21;100503.25;1665638;84;21227;-43
2021/04/29 08:28:29;;;;;;;10.05;6.15;;;;;;;14.03;48.25;100497.05;1672403;84;21660;-43
2021/04/29 08:31:01;;;;;;;12.63;7.20;;;;;;;14.13;47.85;100496.07;1666943;84;21220;-36
2021/04/29 08:33:51;;;;;;;12.20;7.15;;;;;;;14.31;47.83;100497.16;1650401;84;21179;-42
2021/04/29 08:36:19;;;;;;;8.30;5.67;;;;;;;14.48;46.68;100492.17;1687393;83;21158;-42
2021/04/29 08:38:48;;;;;;;11.10;6.62;;;;;;;14.52;46.06;100487.31;1695831;83;22839;-42
2021/04/29 08:41:17;;;;;;;10.15;7.03;;;;;;;14.57;45.90;100486.80;1676824;83;21163;-42
2021/04/29 08:43:47;;;;;;;13.80;7.15;;;;;;;14.70;45.78;100487.05;1684137;83;21163;-42
2021/04/29 08:46:16;;;;;;;10.98;6.55;;;;;;;14.81;44.79;100485.59;1745523;80;21176;-42
2021/04/29 08:48:53;;;;;;;11.37;6.77;;;;;;;14.86;43.52;100488.59;1722859;80;21321;-42
2021/04/29 08:51:21;;;;;;;12.68;5.90;;;;;;;14.88;44.04;100483.28;1685163;83;21763;-45
2021/04/29 08:53:50;;;;;;;11.03;5.78;;;;;;;14.89;42.99;100480.63;1730799;81;21142;-42
2021/04/29 08:56:25;;;;;;;10.60;5.78;;;;;;;14.87;42.99;100486.81;1724012;81;21740;-42
2021/04/29 08:58:54;;;;;;;12.65;6.12;;;;;;;14.85;43.33;100485.98;1720716;82;21148;-37
2021/04/29 09:01:23;;;;;;;10.32;5.05;;;;;;;14.86;41.94;100482.45;1680221;83;21196;-36
2021/04/29 09:03:53;;;;;;;14.90;5.15;;;;;;;14.92;42.37;100478.86;1676291;83;21175;-42
2021/04/29 09:06:31;;;;;;;12.15;6.00;;;;;;;15.06;42.87;100479.50;1686117;83;21541;-37
2021/04/29 09:08:59;;;;;;;10.13;5.92;;;;;;;15.23;43.21;100470.88;1722349;82;21243;-43
2021/04/29 09:11:27;;;;;;;8.20;4.62;;;;;;;15.40;41.64;100471.92;1723497;81;21686;-35
2021/04/29 09:14:02;;;;;;;9.70;5.60;;;;;;;15.52;41.44;100474.80;1725018;81;21207;-42
2021/04/29 09:16:41;;;;;;;8.73;5.15;;;;;;;15.66;42.47;100471.52;1725326;81;21329;-41
2021/04/29 09:19:24;;;;;;;7.67;4.95;;;;;;;15.82;41.51;100465.04;1721572;80;21163;-37
2021/04/29 09:21:54;;;;;;;7.03;5.05;;;;;;;16.00;40.72;100459.85;1723082;81;21196;-36
2021/04/29 09:24:40;;;;;;;7.03;3.92;;;;;;;16.19;40.14;100454.65;1726556;81;21139;-37
2021/04/29 09:27:17;;;;;;;10.10;4.30;;;;;;;16.22;39.96;100449.29;1724077;81;21170;-37
2021/04/29 09:29:57;;;;;;;7.00;4.72;;;;;;;16.20;39.59;100441.86;1723531;81;21624;-39
2021/04/29 09:32:30;;;;;;;7.10;3.92;;;;;;;16.22;37.98;100442.69;1724929;81;21179;-42
2021/04/29 09:34:58;;;;;;;7.40;4.40;;;;;;;16.19;38.86;100446.73;1728815;81;21227;-43
2021/04/29 09:37:31;;;;;;;10.60;4.28;;;;;;;16.21;39.46;100445.38;1685103;83;21172;-42
2021/04/29 09:40:08;;;;;;;11.20;4.50;;;;;;;16.29;40.37;100445.20;1732085;81;21477;-38
2021/04/29 09:42:37;;;;;;;5.92;3.80;;;;;;;16.50;39.42;100444.30;1721930;81;21191;-42
2021/04/29 09:45:19;;;;;;;6.87;3.45;;;;;;;16.63;38.62;100445.34;1678513;83;21195;-42
2021/04/29 09:48:00;;;;;;;6.20;2.77;;;;;;;16.72;38.83;100433.30;1664801;84;21514;-38
2021/04/29 09:50:32;;;;;;;6.65;4.12;;;;;;;16.88;38.87;100437.32;1667852;85;21148;-41
2021/04/29 09:53:11;;;;;;;6.70;3.37;;;;;;;17.03;38.30;100430.33;1672320;84;21180;-38
2021/04/29 09:55:44;;;;;;;4.55;3.40;;;;;;;17.15;37.59;100415.94;1716911;81;21241;-43
2021/04/29 09:58:16;;;;;;;5.12;2.90;;;;;;;17.29;37.04;100415.61;1734489;81;21327;-37
2021/04/29 10:00:47;;;;;;;6.87;2.90;;;;;;;17.39;36.23;100415.77;1729163;81;21132;-37
2021/04/29 10:03:19;;;;;;;6.62;3.30;;;;;;;17.55;36.20;100399.91;1718186;81;21321;-41
2021/04/29 10:05:53;;;;;;;6.53;2.90;;;;;;;17.59;36.94;100403.81;1719931;81;21229;-41
2021/04/29 10:08:17;;;;;;;6.85;3.33;;;;;;;17.63;36.25;100405.02;1723480;81;21216;-42
2021/04/29 10:10:47;;;;;;;5.90;3.25;;;;;;;17.76;36.96;100401.14;1713118;83;21176;-36
2021/04/29 10:13:18;;;;;;;6.95;3.20;;;;;;;17.99;37.47;100394.33;1692915;82;21167;-38
2021/04/29 10:15:46;;;;;;;4.72;3.22;;;;;;;18.21;34.75;100384.86;1721278;81;21160;-37
2021/04/29 10:18:14;;;;;;;4.17;2.95;;;;;;;18.31;34.35;100384.09;1720188;81;21466;-36
2021/04/29 10:20:49;;;;;;;4.53;3.30;;;;;;;18.37;35.26;100371.98;1716105;81;21169;-43
2021/04/29 10:23:19;;;;;;;9.35;2.98;;;;;;;18.51;34.64;100369.80;1671850;83;21201;-42
2021/04/29 10:25:56;;;;;;;9.35;3.08;;;;;;;18.67;35.03;100377.23;1670141;83;21482;-36
2021/04/29 10:28:42;;;;;;;5.28;3.15;;;;;;;18.74;34.13;100361.61;1670726;83;21136;-37
2021/04/29 10:31:23;;;;;;;8.85;3.10;;;;;;;18.94;33.81;100360.94;1674321;84;22107;-36
2021/04/29 10:34:14;;;;;;;5.58;2.90;;;;;;;19.20;33.49;100349.01;1665057;84;21318;-41
2021/04/29 10:36:47;;;;;;;5.53;2.40;;;;;;;19.50;33.61;100347.05;1673104;83;21166;-43
2021/04/29 10:39:24;;;;;;;3.20;2.40;;;;;;;19.83;33.39;100342.34;1648177;85;21222;-42
2021/04/29 10:42:07;;;;;;;4.25;2.45;;;;;;;20.20;31.84;100339.14;1720690;81;21691;-37
2021/04/29 10:44:45;;;;;;;4.17;2.65;;;;;;;20.51;30.73;100333.96;1648417;85;21211;-36
2021/04/29 10:47:30;;;;;;;5.65;2.52;;;;;;;20.58;30.70;100322.61;1664222;84;21192;-36
2021/04/29 10:50:16;;;;;;;3.85;2.02;;;;;;;20.50;30.74;100328.72;1661770;84;21258;-37
2021/04/29 10:52:53;;;;;;;2.67;2.20;;;;;;;20.56;30.45;100326.67;1657720;84;21554;-37
2021/04/29 10:55:36;;;;;;;6.42;2.22;;;;;;;20.35;29.91;100331.47;1662066;85;21160;-36
2021/04/29 10:58:06;;;;;;;5.05;2.20;;;;;;;20.44;31.17;100324.02;1673996;83;21354;-38
2021/04/29 11:00:38;;;;;;;4.87;2.33;;;;;;;20.73;31.46;100318.87;1670426;83;21722;-36
2021/04/29 11:03:07;;;;;;;;;;;;;;;21.24;30.60;100313.59;1672951;83;21318;-38
2021/04/29 11:05:36;;;;;;;5.10;2.42;;;;;;;21.81;29.16;100304.91;1666977;84;20190;-43
2021/04/29 11:08:16;;;;;;;4.03;1.95;;;;;;;22.15;28.73;100310.86;1675706;84;21349;-37
2021/04/29 11:10:45;;;;;;;3.12;1.70;;;;;;;22.55;27.91;100309.80;1666983;84;21471;-41
2021/04/29 11:13:20;;;;;;;2.75;1.87;;;;;;;22.98;27.71;100313.03;1722899;82;21454;-42
2021/04/29 11:15:57;;;;;;;4.47;2.00;;;;;;;23.30;28.27;100308.20;1718825;81;21814;-44
2021/04/29 11:18:25;;;;;;;8.63;2.83;;;;;;;23.51;27.06;100306.70;1715204;82;21485;-42
2021/04/29 11:21:00;;;;;;;4.83;2.00;;;;;;;23.59;27.46;100299.98;1655448;83;21195;-37
2021/04/29 11:23:42;;;;;;;7.80;2.60;;;;;;;23.58;26.49;100291.59;1686900;83;21329;-44
2021/04/29 11:26:16;;;;;;;5.25;2.08;;;;;;;23.50;26.94;100291.63;1671062;83;21195;-43
2021/04/29 11:28:44;;;;;;;17.00;2.70;;;;;;;23.31;27.21;100293.94;1667685;84;21667;-44
2021/04/29 11:31:13;;;;;;;3.58;2.12;;;;;;;23.23;27.29;100281.93;1668049;84;21179;-38
2021/04/29 11:33:47;;;;;;;5.53;2.12;;;;;;;23.03;27.00;100290.52;1677812;84;21699;-35
2021/04/29 11:36:29;;;;;;;3.80;2.20;;;;;;;22.69;26.96;100297.13;1719300;82;21096;-45
2021/04/29 11:39:03;;;;;;;2.95;2.30;;;;;;;22.29;27.16;100289.76;1721708;81;21907;-38
2021/04/29 11:41:31;;;;;;;2.27;2.00;;;;;;;22.06;28.30;100285.50;1722655;81;21171;-36
2021/04/29 11:44:24;;;;;;;3.77;1.67;;;;;;;22.08;28.33;100278.76;1681613;83;21175;-38
2021/04/29 11:47:14;;;;;;;3.40;2.10;;;;;;;22.08;28.33;100278.76;1658372;83;21143;-43
2021/04/29 11:49:42;;;;;;;4.90;2.10;;;;;;;22.12;28.50;100271.92;1673401;83;21192;-44
2021/04/29 11:52:10;;;;;;;2.67;1.55;;;;;;;21.97;27.33;100270.80;1673336;84;21140;-36
2021/04/29 11:54:48;;;;;;;2.40;1.72;;;;;;;21.59;27.44;100271.27;1680949;83;21156;-43
2021/04/29 11:57:17;;;;;;;3.62;1.75;;;;;;;21.33;28.06;100270.25;1648018;86;21160;-43
2021/04/29 11:59:51;;;;;;;8.35;2.15;;;;;;;21.03;27.64;100262.66;1663047;84;21196;-43
2021/04/29 12:02:19;;;;;;;2.90;1.90;;;;;;;20.91;28.85;100257.41;1692882;84;21183;-37
2021/04/29 12:04:50;;;;;;;4.05;1.70;;;;;;;20.94;29.51;100261.28;1665395;84;21680;-36
2021/04/29 12:07:25;;;;;;;2.75;1.60;;;;;;;20.98;28.65;100255.34;1670404;85;21295;-38
2021/04/29 12:09:54;;;;;;;3.27;1.72;;;;;;;20.94;30.09;100251.97;1672250;84;21186;-44
2021/04/29 12:12:22;;;;;;;3.65;1.80;;;;;;;20.95;28.98;100248.38;1716345;82;21184;-44
2021/04/29 12:14:54;;;;;;;3.45;1.70;;;;;;;21.02;28.87;100251.63;1733364;81;21208;-36
2021/04/29 12:17:23;;;;;;;;;;;;;;;21.01;29.07;100243.72;1723374;81;21124;-36
2021/04/29 12:19:53;;;;;;;2.40;2.08;;;;;;;20.99;28.50;100236.68;1725228;81;20178;-37
2021/04/29 12:22:23;;;;;;;3.83;2.20;;;;;;;20.96;28.77;100238.59;1713908;83;21138;-36
2021/04/29 12:24:51;;;;;;;2.70;2.08;;;;;;;20.91;29.11;100229.95;1715670;81;21166;-37
2021/04/29 12:27:22;;;;;;;4.85;1.87;;;;;;;20.86;28.48;100233.27;1727778;81;21167;-37
2021/04/29 12:30:01;;;;;;;2.98;1.92;;;;;;;20.81;28.84;100237.92;1662248;85;21136;-44
2021/04/29 12:32:38;;;;;;;2.35;1.42;;;;;;;20.77;29.17;100235.02;1677934;83;21164;-43
2021/04/29 12:35:08;;;;;;;5.60;1.90;;;;;;;20.72;29.05;100233.87;1674111;83;21819;-43
2021/04/29 12:37:36;;;;;;;4.80;1.70;;;;;;;20.57;29.74;100226.08;1650169;87;21187;-43
2021/04/29 12:40:05;;;;;;;4.33;2.00;;;;;;;20.44;29.04;100227.50;1683940;83;21178;-44
2021/04/29 12:42:33;;;;;;;3.72;2.20;;;;;;;20.43;29.12;100229.29;1710320;81;21188;-38
2021/04/29 12:45:03;;;;;;;2.00;1.62;;;;;;;20.53;29.92;100225.83;1722463;82;21197;-37
2021/04/29 12:47:32;;;;;;;1.80;1.50;;;;;;;20.69;29.49;100222.89;1668143;83;21172;-37
2021/04/29 12:50:06;;;;;;;2.15;1.70;;;;;;;20.66;28.83;100227.03;1712857;82;22025;-38
2021/04/29 12:52:51;;;;;;;2.95;2.10;;;;;;;20.53;29.09;100217.00;1724338;81;21530;-37
2021/04/29 12:55:21;;;;;;;3.35;1.92;;;;;;;20.45;30.32;100214.61;1675672;83;21722;-37
2021/04/29 12:57:50;;;;;;;3.45;1.98;;;;;;;20.39;28.75;100218.38;1728733;82;21633;-37
2021/04/29 13:00:22;;;;;;;8.35;1.90;;;;;;;20.22;30.62;100213.36;1658172;83;21735;-44
2021/04/29 13:03:01;;;;;;;3.08;1.85;;;;;;;20.32;30.14;100215.59;1671793;84;21191;-43
2021/04/29 13:05:30;;;;;;;7.65;1.75;;;;;;;20.53;29.96;100204.57;1677568;84;21615;-43
2021/04/29 13:07:59;;;;;;;4.75;2.17;;;;;;;20.58;29.48;100207.87;1676094;84;21184;-37
2021/04/29 13:10:27;;;;;;;4.45;2.05;;;;;;;20.77;29.45;100202.65;1679655;85;21574;-43
2021/04/29 13:12:57;;;;;;;3.77;2.15;;;;;;;21.12;29.12;100197.57;1675414;84;21573;-41
2021/04/29 13:15:27;;;;;;;3.70;1.90;;;;;;;21.50;29.05;100199.35;1677325;84;21722;-42
2021/04/29 13:17:55;;;;;;;6.10;1.77;;;;;;;22.02;28.40;100189.34;1725264;81;21187;-43
2021/04/29 13:20:23;;;;;;;2.40;2.20;;;;;;;22.46;28.40;100183.66;1715109;82;21604;-36
2021/04/29 13:22:51;;;;;;;5.42;2.15;;;;;;;22.83;27.58;100177.27;1718079;83;21187;-43
